Aviation Digital Data Service (ADDS)

Output produced by METARs form (1425 UTC 01 April 2015)
found at http://aviationweather.gov/adds/metars/
 
KISO 011124Z 0112/0212 03010G16KT P6SM SKC AMD LTD TO CLD VIS AND WIND